Time;durP1;ratioP1;P1;durP2;ratioP2;P2;SDS_P1;SDS_P2;PMS_P1;PMS_P2;Temp;Humidity;BMP_temperature;BMP_pressure;BME280_temperature;BME280_humidity;BME280_pressure;Samples;Min_cycle;Max_cycle;Signal;HPM_P1;HPM_P2
2023/10/10 00:00:57;;;;;;;;;;;;;;;11.70;37.88;100822.41;5075326;28;20296;-63
2023/10/10 00:03:27;;;;;;;;;;;;;;;11.64;37.74;100820.44;5074931;28;19976;-63
2023/10/10 00:05:53;;;;;;;;;;;;;;;11.59;37.75;100812.16;5081363;28;19966;-63
2023/10/10 00:08:20;;;;;;;;;;;;;;;11.54;37.76;100807.34;5095262;28;19928;-63
2023/10/10 00:10:50;;;;;;;;;;;;;;;11.48;37.65;100797.34;5095540;28;19916;-62
2023/10/10 00:13:19;;;;;;;;;;;;;;;11.47;37.86;100790.28;5095531;28;19920;-63
2023/10/10 00:15:50;;;;;;;;;;;;;;;11.48;37.58;100797.34;5095199;28;19912;-63
2023/10/10 00:18:19;;;;;;;;;;;;;;;11.45;38.17;100803.09;5093705;28;20015;-63
2023/10/10 00:21:06;;;;;;;;;;;;;;;11.41;38.28;100805.34;5074582;28;20365;-63
2023/10/10 00:23:42;;;;;;;;;;;;;;;11.36;38.21;100799.69;5074635;28;19995;-63
2023/10/10 00:26:12;;;;;;;;;;;;;;;11.34;37.96;100800.91;5074667;28;19916;-63
2023/10/10 00:28:39;;;;;;;;;;;;;;;11.32;37.71;100805.66;5074682;28;19916;-63
2023/10/10 00:31:09;;;;;;;;;;;;;;;11.29;38.25;100804.19;5074601;28;19936;-63
2023/10/10 00:33:38;;;;;;;;;;;;;;;11.26;37.97;100806.41;5073884;28;19956;-63
2023/10/10 00:36:04;;;;;;;;;;;;;;;11.21;37.93;100801.59;5074141;28;20340;-63
2023/10/10 00:38:30;;;;;;;;;;;;;;;11.21;38.06;100802.41;5074414;28;19917;-63
2023/10/10 00:40:57;;;;;;;;;;;;;;;11.21;38.08;100798.91;5056389;28;19916;-63
2023/10/10 00:43:24;;;;;;;;;;;;;;;11.19;38.59;100795.56;5074447;28;20011;-63
2023/10/10 00:45:53;;;;;;;;;;;;;;;11.17;37.94;100789.56;5074562;28;19923;-63
2023/10/10 00:48:22;;;;;;;;;;;;;;;11.18;38.59;100783.16;5074137;28;19912;-63
2023/10/10 00:51:05;;;;;;;;;;;;;;;11.16;38.27;100777.13;5074437;28;19913;-63
2023/10/10 00:53:33;;;;;;;;;;;;;;;11.15;38.60;100779.00;5073947;28;19916;-63
2023/10/10 00:55:59;;;;;;;;;;;;;;;11.14;38.48;100781.88;5073272;28;20400;-63
2023/10/10 00:58:35;;;;;;;;;;;;;;;11.13;38.53;100778.34;5074253;28;19919;-63
2023/10/10 01:01:04;;;;;;;;;;;;;;;11.16;38.68;100772.59;5056244;28;19958;-63
2023/10/10 01:03:34;;;;;;;;;;;;;;;11.14;37.90;100774.63;5092067;28;19912;-63
2023/10/10 01:06:05;;;;;;;;;;;;;;;11.14;38.56;100780.00;5094088;28;19964;-63
2023/10/10 01:08:48;;;;;;;;;;;;;;;11.10;37.95;100770.66;5090571;28;19920;-63
2023/10/10 01:11:16;;;;;;;;;;;;;;;11.07;38.39;100771.06;5073754;28;19912;-63
2023/10/10 01:13:41;;;;;;;;;;;;;;;11.06;38.46;100771.25;5073794;28;19917;-63
2023/10/10 01:16:08;;;;;;;;;;;;;;;11.03;38.20;100759.84;5077189;28;19941;-63
2023/10/10 01:18:51;;;;;;;;;;;;;;;11.03;38.34;100756.31;5093485;28;19912;-63
2023/10/10 01:21:22;;;;;;;;;;;;;;;11.06;38.25;100755.13;5073750;28;19912;-65
2023/10/10 01:23:49;;;;;;;;;;;;;;;11.09;38.74;100757.41;5073802;28;20305;-64
2023/10/10 01:26:16;;;;;;;;;;;;;;;11.09;39.11;100750.19;5056040;28;19927;-63
2023/10/10 01:28:41;;;;;;;;;;;;;;;11.09;38.83;100750.19;5073524;28;19958;-63
2023/10/10 01:31:10;;;;;;;;;;;;;;;11.08;38.33;100747.69;5073510;28;19956;-63
2023/10/10 01:33:36;;;;;;;;;;;;;;;11.06;38.66;100742.50;5073289;28;19970;-64
2023/10/10 01:36:12;;;;;;;;;;;;;;;11.06;38.73;100741.69;5073412;28;19916;-63
2023/10/10 01:38:41;;;;;;;;;;;;;;;11.01;39.04;100744.91;5050396;28;19916;-63
2023/10/10 01:41:21;;;;;;;;;;;;;;;10.67;39.19;100695.34;5093943;28;19920;-63
2023/10/10 01:43:47;;;;;;;;;;;;;;;10.93;38.88;100734.28;5093778;28;19916;-63
2023/10/10 01:46:27;;;;;;;;;;;;;;;10.87;39.28;100729.69;5078386;28;19912;-63
2023/10/10 01:48:53;;;;;;;;;;;;;;;10.82;39.07;100728.38;5073423;28;19912;-63
2023/10/10 01:51:19;;;;;;;;;;;;;;;10.81;39.18;100733.97;5073596;28;19913;-63
2023/10/10 01:53:44;;;;;;;;;;;;;;;10.78;39.50;100729.78;5072816;28;19917;-63
2023/10/10 01:56:12;;;;;;;;;;;;;;;10.76;39.45;100726.44;5073831;28;19916;-62
2023/10/10 01:58:37;;;;;;;;;;;;;;;10.75;40.10;100734.69;5073353;28;19916;-63
2023/10/10 02:01:16;;;;;;;;;;;;;;;10.72;39.15;100738.59;5055769;28;19931;-63
2023/10/10 02:03:42;;;;;;;;;;;;;;;10.67;39.32;100738.31;5053254;28;19956;-64
2023/10/10 02:06:13;;;;;;;;;;;;;;;10.69;39.59;100743.50;5052968;28;19963;-64
2023/10/10 02:08:38;;;;;;;;;;;;;;;10.65;39.79;100735.81;5053012;28;19971;-63
2023/10/10 02:11:04;;;;;;;;;;;;;;;10.61;40.04;100731.84;5052999;28;19913;-63
2023/10/10 02:13:33;;;;;;;;;;;;;;;10.60;39.98;100727.50;5053041;28;19921;-64
2023/10/10 02:15:59;;;;;;;;;;;;;;;10.58;39.26;100720.66;5062691;28;20399;-64
2023/10/10 02:18:37;;;;;;;;;;;;;;;10.62;40.41;100721.94;5073195;28;19919;-64
2023/10/10 02:21:06;;;;;;;;;;;;;;;10.63;39.96;100723.63;5055138;28;20433;-64
2023/10/10 02:23:36;;;;;;;;;;;;;;;10.65;39.86;100713.50;5072837;28;20456;-64
2023/10/10 02:26:23;;;;;;;;;;;;;;;10.64;40.17;100714.53;5073263;28;19912;-63
2023/10/10 02:28:49;;;;;;;;;;;;;;;10.64;40.19;100703.78;5072887;28;20003;-63
2023/10/10 02:31:19;;;;;;;;;;;;;;;10.57;39.56;100703.72;5073076;28;19913;-62
2023/10/10 02:34:03;;;;;;;;;;;;;;;10.52;39.83;100714.19;5073064;28;19962;-63
2023/10/10 02:36:31;;;;;;;;;;;;;;;10.50;39.70;100704.66;5072840;28;20408;-63
2023/10/10 02:41:48;;;;;;;;;;;;;;;10.45;39.62;100711.38;5072884;28;19913;-63
2023/10/10 02:44:26;;;;;;;;;;;;;;;10.42;40.05;100708.28;5072742;28;19921;-63
2023/10/10 02:46:53;;;;;;;;;;;;;;;10.42;40.49;100706.41;5072448;28;20007;-63
2023/10/10 02:49:42;;;;;;;;;;;;;;;10.42;39.95;100702.91;5072246;28;19912;-63
2023/10/10 02:52:07;;;;;;;;;;;;;;;10.41;39.77;100693.16;5071936;28;19999;-65
2023/10/10 02:54:34;;;;;;;;;;;;;;;10.39;40.54;100708.63;5077605;28;19920;-64
2023/10/10 02:57:26;;;;;;;;;;;;;;;10.35;40.19;100707.34;5095808;28;20369;-65
2023/10/10 02:59:50;;;;;;;;;;;;;;;10.31;40.08;100708.72;5093662;28;19920;-64
2023/10/10 03:02:19;;;;;;;;;;;;;;;10.28;39.97;100705.34;5076340;28;19916;-64
2023/10/10 03:07:29;;;;;;;;;;;;;;;10.28;40.52;100702.66;5076186;28;19919;-64
2023/10/10 03:13:28;;;;;;;;;;;;;;;10.28;40.82;100699.16;5042028;28;20372;-65
2023/10/10 03:15:56;;;;;;;;;;;;;;;10.24;39.85;100689.81;5075953;28;19924;-65
2023/10/10 03:18:30;;;;;;;;;;;;;;;10.19;40.14;100685.00;5076374;28;19940;-65
2023/10/10 03:23:56;;;;;;;;;;;;;;;10.10;40.05;100686.09;5075919;28;20053;-64
2023/10/10 03:29:11;;;;;;;;;;;;;;;10.09;40.58;100684.47;5044720;28;20016;-65
2023/10/10 03:31:42;;;;;;;;;;;;;;;10.07;40.75;100681.97;5075923;28;19923;-64
2023/10/10 03:34:30;;;;;;;;;;;;;;;10.06;40.00;100679.44;5057822;28;19981;-64
2023/10/10 03:39:48;;;;;;;;;;;;;;;9.99;39.59;100673.16;5075450;28;19919;-65
2023/10/10 05:23:52;;;;;;;;;;;;;;;9.52;41.61;100601.94;5073894;28;19919;-64
2023/10/10 05:26:20;;;;;;;;;;;;;;;9.49;41.79;100606.63;5073758;28;19913;-63
2023/10/10 05:28:46;;;;;;;;;;;;;;;9.50;42.25;100600.25;5073752;28;20318;-63
2023/10/10 05:31:11;;;;;;;;;;;;;;;9.50;41.78;100602.94;5074015;28;19935;-63
2023/10/10 05:33:36;;;;;;;;;;;;;;;9.48;41.75;100599.59;5073413;28;20292;-63
2023/10/10 05:36:08;;;;;;;;;;;;;;;9.48;41.96;100604.97;5073621;28;19913;-64
2023/10/10 05:38:39;;;;;;;;;;;;;;;9.53;41.91;100599.06;5073751;28;19912;-64
2023/10/10 05:41:06;;;;;;;;;;;;;;;9.50;42.02;100600.25;5068239;28;20003;-64
2023/10/10 05:43:34;;;;;;;;;;;;;;;9.48;41.62;100591.56;5081038;28;20396;-64
2023/10/10 05:46:00;;;;;;;;;;;;;;;9.49;41.96;100590.56;5080874;28;19913;-64
2023/10/10 05:48:26;;;;;;;;;;;;;;;9.50;41.83;100583.34;5073993;28;19913;-64
2023/10/10 05:50:53;;;;;;;;;;;;;;;9.47;41.53;100572.97;5073411;28;19913;-64
2023/10/10 05:53:20;;;;;;;;;;;;;;;9.45;41.68;100572.31;5072797;28;20368;-64
2023/10/10 05:55:51;;;;;;;;;;;;;;;9.49;42.28;100574.47;5072872;28;20300;-65
2023/10/10 05:58:17;;;;;;;;;;;;;;;9.48;42.00;100580.84;5055437;28;19913;-64
2023/10/10 06:00:44;;;;;;;;;;;;;;;9.48;41.93;100575.47;5073580;28;20257;-64
2023/10/10 06:03:12;;;;;;;;;;;;;;;9.46;41.71;100577.50;5056352;28;19913;-64
2023/10/10 06:05:41;;;;;;;;;;;;;;;9.46;42.33;100574.81;5053368;28;19917;-64
2023/10/10 06:08:06;;;;;;;;;;;;;;;9.47;42.10;100571.16;5052982;28;19913;-64
2023/10/10 06:10:32;;;;;;;;;;;;;;;9.47;42.15;100568.47;5072825;28;19924;-64
2023/10/10 06:12:58;;;;;;;;;;;;;;;9.47;41.95;100554.22;5073420;28;20430;-64
2023/10/10 06:15:24;;;;;;;;;;;;;;;9.49;42.47;100553.03;5072948;28;19913;-64
2023/10/10 06:17:49;;;;;;;;;;;;;;;9.54;42.06;100552.47;5072998;28;19913;-64
2023/10/10 06:20:21;;;;;;;;;;;;;;;9.54;41.86;100546.28;5073401;28;19919;-64
2023/10/10 06:22:46;;;;;;;;;;;;;;;9.54;42.35;100562.34;5073398;28;20369;-64
2023/10/10 06:25:11;;;;;;;;;;;;;;;9.59;42.57;100557.28;5072702;28;19966;-64
2023/10/10 06:27:40;;;;;;;;;;;;;;;9.61;42.50;100557.94;5073115;28;19970;-64
2023/10/10 06:30:19;;;;;;;;;;;;;;;9.62;42.54;100563.09;5073144;28;19944;-65
2023/10/10 06:32:46;;;;;;;;;;;;;;;9.64;42.31;100558.38;5077033;28;19913;-64
2023/10/10 06:37:43;;;;;;;;;;;;;;;9.63;41.98;100550.53;5077052;28;19920;-64
2023/10/10 06:40:09;;;;;;;;;;;;;;;9.64;42.04;100554.88;5087558;28;19916;-64
2023/10/10 06:42:35;;;;;;;;;;;;;;;9.65;42.05;100553.84;5096819;28;19916;-64
2023/10/10 06:45:07;;;;;;;;;;;;;;;9.65;42.35;100553.84;5092536;28;20365;-64
2023/10/10 06:47:33;;;;;;;;;;;;;;;9.69;42.46;100555.13;5076805;28;19920;-64
2023/10/10 06:50:00;;;;;;;;;;;;;;;9.71;42.50;100553.09;5076766;28;19913;-64
2023/10/10 06:52:27;;;;;;;;;;;;;;;9.76;42.47;100550.69;5076206;28;19939;-64
2023/10/10 06:54:56;;;;;;;;;;;;;;;9.79;42.14;100555.69;5075869;28;19924;-66
2023/10/10 06:57:35;;;;;;;;;;;;;;;9.84;42.97;100550.63;5076193;28;19920;-62
2023/10/10 07:00:01;;;;;;;;;;;;;;;9.98;42.79;100554.28;5075940;28;19920;-64
2023/10/10 07:02:27;;;;;;;;;;;;;;;10.07;42.96;100561.22;5065474;28;20332;-62
2023/10/10 07:04:55;;;;;;;;;;;;;;;10.22;42.57;100545.06;5076150;28;19912;-63
2023/10/10 07:07:20;;;;;;;;;;;;;;;10.38;42.93;100527.94;5076128;28;19952;-63
2023/10/10 07:09:46;;;;;;;;;;;;;;;10.52;42.71;100525.38;5076000;28;19971;-63
2023/10/10 07:12:13;;;;;;;;;;;;;;;10.59;43.09;100513.69;5076463;28;19912;-61
2023/10/10 07:14:46;;;;;;;;;;;;;;;10.65;42.76;100514.75;5076457;28;19964;-65
2023/10/10 07:17:12;;;;;;;;;;;;;;;10.71;42.68;100513.16;5076182;28;19940;-63
2023/10/10 07:22:26;;;;;;;;;;;;;;;10.77;42.89;100491.75;5055901;28;19958;-63
2023/10/10 07:25:06;;;;;;;;;;;;;;;10.85;42.42;100496.97;5069919;28;19916;-63
2023/10/10 07:27:35;;;;;;;;;;;;;;;10.93;42.11;100503.22;5075825;28;19947;-63
2023/10/10 07:30:08;;;;;;;;;;;;;;;10.96;42.03;100498.28;5076028;28;19913;-63
2023/10/10 07:32:35;;;;;;;;;;;;;;;11.01;42.40;100503.91;5075963;28;19951;-64
2023/10/10 07:35:02;;;;;;;;;;;;;;;11.07;42.22;100501.44;5076037;28;20349;-64
2023/10/10 07:37:29;;;;;;;;;;;;;;;11.11;41.96;100497.38;5095345;28;20380;-63
2023/10/10 07:39:55;;;;;;;;;;;;;;;11.12;42.71;100497.13;5096203;28;19913;-64
2023/10/10 07:42:30;;;;;;;;;;;;;;;11.20;42.28;100498.88;5095557;28;19966;-63
2023/10/10 07:44:56;;;;;;;;;;;;;;;11.30;42.23;100490.44;5092178;28;19913;-63
2023/10/10 07:47:25;;;;;;;;;;;;;;;11.36;42.23;100474.34;5075858;28;20380;-64
2023/10/10 07:49:54;;;;;;;;;;;;;;;11.42;42.05;100483.47;5061282;28;19920;-64
2023/10/10 07:52:22;;;;;;;;;;;;;;;11.47;41.81;100488.25;5061700;28;20361;-64
2023/10/10 07:54:51;;;;;;;;;;;;;;;11.51;41.73;100481.44;5074738;28;19936;-64
2023/10/10 07:57:17;;;;;;;;;;;;;;;11.54;42.31;100476.50;5075278;28;19965;-64
2023/10/10 07:59:46;;;;;;;;;;;;;;;11.55;42.02;100477.31;5075563;28;19913;-64
2023/10/10 08:02:31;;;;;;;;;;;;;;;11.62;42.01;100475.50;5074839;28;19914;-64
2023/10/10 08:05:00;;;;;;;;;;;;;;;11.76;42.30;100474.53;5060708;28;20007;-64
2023/10/10 08:07:26;;;;;;;;;;;;;;;11.81;41.37;100474.75;5075150;28;19920;-64
2023/10/10 08:10:13;;;;;;;;;;;;;;;11.90;41.43;100461.16;5074917;28;19920;-64
2023/10/10 08:12:39;;;;;;;;;;;;;;;11.96;41.46;100473.78;5067391;28;19920;-64
2023/10/10 08:15:19;;;;;;;;;;;;;;;12.07;41.09;100461.59;5075316;28;19920;-64
2023/10/10 08:17:54;;;;;;;;;;;;;;;12.19;40.95;100458.13;5075379;28;20258;-64
2023/10/10 08:21:07;;;;;;;;;;;;;;;12.24;41.13;100451.28;5075447;28;19912;-64
2023/10/10 08:23:24;;;;;;;;;;;;;;;12.29;42.14;100448.81;5074637;28;20368;-64
2023/10/10 08:25:50;;;;;;;;;;;;;;;12.38;40.96;100448.41;5075176;28;19923;-64
2023/10/10 08:28:15;;;;;;;;;;;;;;;12.44;41.60;100443.22;5075159;28;20305;-64
2023/10/10 08:30:40;;;;;;;;;;;;;;;12.47;40.99;100448.22;5074830;28;19961;-64
2023/10/10 08:33:05;;;;;;;;;;;;;;;12.50;41.08;100442.38;5067866;28;20006;-64
2023/10/10 08:35:38;;;;;;;;;;;;;;;12.56;40.92;100450.50;5094769;28;19912;-63
2023/10/10 08:38:03;;;;;;;;;;;;;;;12.54;41.33;100451.75;5094926;28;19920;-64
2023/10/10 08:40:33;;;;;;;;;;;;;;;12.51;41.45;100442.19;5074400;28;19921;-64
2023/10/10 08:42:59;;;;;;;;;;;;;;;12.49;41.66;100448.84;5074278;28;19912;-64
2023/10/10 08:45:25;;;;;;;;;;;;;;;12.53;41.39;100445.50;5074142;28;19919;-64
2023/10/10 08:48:00;;;;;;;;;;;;;;;12.52;41.32;100446.56;5074254;28;20399;-64
2023/10/10 08:50:26;;;;;;;;;;;;;;;12.55;41.35;100438.03;5074047;28;20384;-64
2023/10/10 08:52:51;;;;;;;;;;;;;;;12.60;41.35;100429.34;5073856;28;19913;-64
2023/10/10 08:55:19;;;;;;;;;;;;;;;12.70;41.08;100428.91;5073176;28;19924;-64
2023/10/10 08:57:44;;;;;;;;;;;;;;;12.76;41.12;100418.16;5074383;28;19913;-64
2023/10/10 09:00:11;;;;;;;;;;;;;;;12.82;41.21;100421.06;5073882;28;20403;-64
2023/10/10 09:02:37;;;;;;;;;;;;;;;12.86;41.42;100414.19;5074185;28;19913;-64
2023/10/10 09:05:06;;;;;;;;;;;;;;;12.94;41.12;100397.78;5074045;28;19912;-64
2023/10/10 09:07:32;;;;;;;;;;;;;;;13.04;41.35;100395.50;5073605;28;19922;-64
2023/10/10 09:10:13;;;;;;;;;;;;;;;13.12;41.47;100397.13;5073890;28;19935;-64
2023/10/10 09:12:52;;;;;;;;;;;;;;;13.20;41.00;100407.66;5066529;28;19919;-64
2023/10/10 09:15:18;;;;;;;;;;;;;;;13.32;41.27;100402.50;5073628;28;20353;-64
2023/10/10 09:17:45;;;;;;;;;;;;;;;13.43;40.79;100392.88;5073586;28;19913;-63
2023/10/10 09:20:28;;;;;;;;;;;;;;;13.51;40.74;100389.97;5073606;28;20010;-63
2023/10/10 09:22:56;;;;;;;;;;;;;;;13.63;40.94;100385.56;5073647;28;20292;-64
2023/10/10 09:25:25;;;;;;;;;;;;;;;13.67;40.71;100381.38;5073615;28;20277;-63
2023/10/10 09:28:03;;;;;;;;;;;;;;;13.78;41.20;100373.63;5075102;28;20296;-63
2023/10/10 09:30:40;;;;;;;;;;;;;;;13.95;40.53;100374.78;5074016;28;19918;-63
2023/10/10 09:36:19;;;;;;;;;;;;;;;14.21;39.99;100371.03;5073615;28;20310;-64
2023/10/10 09:38:46;;;;;;;;;;;;;;;14.32;39.78;100364.09;5073566;28;19912;-64
2023/10/10 09:41:27;;;;;;;;;;;;;;;14.43;39.88;100365.22;5073109;28;19912;-63
2023/10/10 09:49:40;;;;;;;;;;;;;;;14.65;39.07;100347.63;5053638;28;19916;-64
2023/10/10 09:54:56;;;;;;;;;;;;;;;14.68;39.47;100352.56;5072744;28;19974;-64
2023/10/10 09:57:26;;;;;;;;;;;;;;;14.65;39.25;100338.66;5069790;28;19919;-64
2023/10/10 09:59:53;;;;;;;;;;;;;;;14.70;38.97;100338.81;5065557;28;19947;-64
2023/10/10 10:02:40;;;;;;;;;;;;;;;14.84;39.21;100331.38;5073629;28;20322;-63
2023/10/10 10:05:13;;;;;;;;;;;;;;;14.88;39.22;100330.72;5073058;28;19913;-63
2023/10/10 10:07:59;;;;;;;;;;;;;;;14.92;39.05;100330.28;5065674;28;20436;-63
2023/10/10 10:10:47;;;;;;;;;;;;;;;14.99;38.64;100341.81;5072637;28;19927;-63
2023/10/10 10:13:37;;;;;;;;;;;;;;;15.05;38.38;100338.22;5073376;28;19913;-63
2023/10/10 10:16:15;;;;;;;;;;;;;;;15.20;38.53;100322.44;5075423;28;20422;-63
2023/10/10 10:18:44;;;;;;;;;;;;;;;15.31;38.09;100317.31;5089286;28;19921;-63
2023/10/10 10:21:30;;;;;;;;;;;;;;;15.38;38.08;100320.72;5073202;28;19912;-63
2023/10/10 10:24:15;;;;;;;;;;;;;;;15.52;38.00;100305.16;5078782;28;20440;-64
2023/10/10 10:26:44;;;;;;;;;;;;;;;15.52;37.85;100289.72;5085758;28;19965;-64
2023/10/10 10:29:15;;;;;;;;;;;;;;;15.73;37.78;100290.25;5093085;28;19919;-64
2023/10/10 10:31:49;;;;;;;;;;;;;;;15.89;37.75;100278.78;5093103;28;19912;-64
2023/10/10 10:34:31;;;;;;;;;;;;;;;16.04;37.53;100278.31;5093137;28;19922;-64
2023/10/10 10:37:06;;;;;;;;;;;;;;;16.22;37.42;100264.69;5093591;28;19947;-64
2023/10/10 10:39:36;;;;;;;;;;;;;;;16.37;37.74;100256.06;5092973;28;20335;-65
2023/10/10 10:42:11;;;;;;;;;;;;;;;16.55;37.41;100254.28;5084879;28;19913;-64
2023/10/10 10:44:58;;;;;;;;;;;;;;;16.68;36.94;100251.31;5065144;28;20429;-64
2023/10/10 10:47:50;;;;;;;;;;;;;;;16.87;37.15;100248.47;5073245;28;19912;-64
2023/10/10 10:50:28;;;;;;;;;;;;;;;17.02;37.05;100243.34;5068650;28;19913;-64
2023/10/10 10:53:06;;;;;;;;;;;;;;;17.24;37.44;100250.81;5073224;28;19913;-64
2023/10/10 10:55:31;;;;;;;;;;;;;;;17.44;36.87;100251.19;5075027;28;20322;-64
2023/10/10 10:58:08;;;;;;;;;;;;;;;17.67;36.24;100239.34;5093040;28;19970;-64
2023/10/10 11:01:07;;;;;;;;;;;;;;;17.74;35.80;100236.47;5083290;28;20392;-64
2023/10/10 11:03:34;;;;;;;;;;;;;;;18.00;35.95;100235.00;5072081;28;19912;-64
2023/10/10 11:06:00;;;;;;;;;;;;;;;18.09;34.94;100232.69;5054711;28;19917;-64
2023/10/10 11:08:51;;;;;;;;;;;;;;;18.11;34.57;100230.56;5072507;28;20341;-64
2023/10/10 11:11:36;;;;;;;;;;;;;;;18.38;34.55;100219.78;5054845;28;20351;-64
2023/10/10 11:16:47;;;;;;;;;;;;;;;18.64;34.93;100199.16;5073280;28;19997;-64
2023/10/10 11:21:53;;;;;;;;;;;;;;;19.01;34.19;100205.88;5089816;28;20024;-64
2023/10/10 11:24:23;;;;;;;;;;;;;;;19.27;34.23;100194.16;5096376;28;19938;-64
2023/10/10 11:29:34;;;;;;;;;;;;;;;19.44;33.34;100182.31;5095301;28;20007;-64
2023/10/10 11:32:07;;;;;;;;;;;;;;;19.42;32.57;100179.84;5096170;28;19977;-64
2023/10/10 11:34:45;;;;;;;;;;;;;;;19.30;33.04;100174.59;5095845;28;19916;-64
2023/10/10 11:37:59;;;;;;;;;;;;;;;19.26;33.28;100170.75;5095996;28;20002;-64
2023/10/10 11:42:55;;;;;;;;;;;;;;;19.33;33.53;100171.34;5055779;28;19965;-64
2023/10/10 11:45:26;;;;;;;;;;;;;;;19.24;33.71;100178.34;5062848;28;20406;-64
2023/10/10 11:47:51;;;;;;;;;;;;;;;19.22;32.97;100168.78;5075665;28;19919;-64
2023/10/10 11:50:17;;;;;;;;;;;;;;;19.29;33.24;100158.50;5075626;28;19912;-64
2023/10/10 11:53:10;;;;;;;;;;;;;;;19.26;33.01;100157.13;5075402;28;19948;-64
2023/10/10 11:55:36;;;;;;;;;;;;;;;19.24;33.54;100145.69;5071895;28;19916;-64
2023/10/10 11:58:07;;;;;;;;;;;;;;;19.31;33.21;100131.81;5075478;28;19913;-64
2023/10/10 12:00:43;;;;;;;;;;;;;;;19.41;33.73;100137.38;5075472;28;19951;-64
2023/10/10 12:03:13;;;;;;;;;;;;;;;19.50;33.34;100124.91;5075355;28;19919;-64
2023/10/10 12:05:47;;;;;;;;;;;;;;;19.50;32.70;100124.06;5075334;28;19916;-64
2023/10/10 12:08:15;;;;;;;;;;;;;;;19.47;33.02;100122.69;5075008;28;20010;-64
2023/10/10 12:10:47;;;;;;;;;;;;;;;19.52;33.14;100128.19;5075116;28;20281;-64
2023/10/10 12:13:19;;;;;;;;;;;;;;;19.57;33.46;100118.41;5057155;28;19919;-64
2023/10/10 12:15:46;;;;;;;;;;;;;;;19.60;34.36;100112.44;5075012;28;20385;-64
2023/10/10 12:18:11;;;;;;;;;;;;;;;19.61;33.33;100109.44;5075192;28;19917;-64
2023/10/10 12:20:37;;;;;;;;;;;;;;;19.58;33.04;100109.16;5075178;28;20024;-64
2023/10/10 12:23:03;;;;;;;;;;;;;;;19.60;32.59;100112.44;5075824;28;19962;-64
2023/10/10 12:25:28;;;;;;;;;;;;;;;19.61;33.05;100100.44;5075814;28;19916;-64
2023/10/10 12:28:00;;;;;;;;;;;;;;;19.54;32.72;100093.34;5074434;28;19919;-64
2023/10/10 12:30:26;;;;;;;;;;;;;;;19.43;32.77;100075.28;5075458;28;20322;-64
2023/10/10 12:32:51;;;;;;;;;;;;;;;19.35;32.69;100081.22;5075360;28;19963;-64
2023/10/10 12:35:17;;;;;;;;;;;;;;;19.19;33.25;100074.03;5075200;28;19964;-63
2023/10/10 12:37:44;;;;;;;;;;;;;;;19.05;32.90;100070.91;5074728;28;20339;-64
2023/10/10 12:40:10;;;;;;;;;;;;;;;18.88;33.04;100060.97;5074793;28;19916;-63
2023/10/10 12:42:36;;;;;;;;;;;;;;;18.73;33.26;100067.06;5074755;28;19913;-63
2023/10/10 12:45:01;;;;;;;;;;;;;;;18.56;33.45;100058.19;5074512;28;19919;-63
2023/10/10 12:47:33;;;;;;;;;;;;;;;18.49;33.72;100046.69;5074731;28;19930;-64
2023/10/10 12:50:00;;;;;;;;;;;;;;;18.49;34.05;100043.97;5074587;28;20443;-64
2023/10/10 12:52:34;;;;;;;;;;;;;;;18.36;33.58;100032.44;5056348;28;19912;-64
2023/10/10 12:55:00;;;;;;;;;;;;;;;18.40;33.68;100034.66;5073864;28;19933;-64
2023/10/10 12:57:26;;;;;;;;;;;;;;;18.32;33.70;100039.47;5074342;28;20375;-64
2023/10/10 12:59:51;;;;;;;;;;;;;;;18.24;33.76;100033.66;5074167;28;20361;-63
2023/10/10 13:02:17;;;;;;;;;;;;;;;18.24;33.99;100020.91;5073926;28;19926;-64
2023/10/10 13:04:46;;;;;;;;;;;;;;;18.26;33.81;100032.34;5074400;28;20377;-64
2023/10/10 13:07:12;;;;;;;;;;;;;;;18.13;34.07;100019.97;5074156;28;19912;-64
2023/10/10 13:09:42;;;;;;;;;;;;;;;18.06;34.14;100010.38;5073718;28;20023;-63
2023/10/10 13:12:09;;;;;;;;;;;;;;;18.07;34.25;100007.41;5074263;28;19916;-64
2023/10/10 13:14:34;;;;;;;;;;;;;;;18.06;34.46;100000.31;5065665;28;19952;-64
2023/10/10 13:19:44;;;;;;;;;;;;;;;17.86;34.68;99987.31;5073699;28;20320;-64
2023/10/10 13:22:20;;;;;;;;;;;;;;;17.77;34.41;99976.06;5070875;28;19916;-64
2023/10/10 13:24:45;;;;;;;;;;;;;;;17.76;35.30;99973.59;5073953;28;19912;-63
2023/10/10 13:27:11;;;;;;;;;;;;;;;17.74;35.38;99967.59;5074024;28;20414;-64
2023/10/10 13:29:36;;;;;;;;;;;;;;;17.77;36.22;99973.34;5073602;28;19912;-64
2023/10/10 13:32:04;;;;;;;;;;;;;;;17.65;36.14;99971.81;5073589;28;19912;-63
2023/10/10 13:34:29;;;;;;;;;;;;;;;17.52;36.09;99952.09;5055513;28;20053;-64
2023/10/10 13:36:55;;;;;;;;;;;;;;;17.49;37.54;99952.59;5073824;28;20403;-63
2023/10/10 13:39:33;;;;;;;;;;;;;;;17.37;38.72;99939.16;5072801;28;19912;-63
2023/10/10 13:41:58;;;;;;;;;;;;;;;17.31;38.96;99923.88;5073696;28;20011;-64
2023/10/10 13:44:23;;;;;;;;;;;;;;;17.36;38.52;99918.50;5082353;28;19962;-64
2023/10/10 13:46:49;;;;;;;;;;;;;;;17.21;38.21;99927.25;5073977;28;19919;-64
2023/10/10 13:49:18;;;;;;;;;;;;;;;17.25;38.01;99915.91;5073667;28;19916;-64
2023/10/10 13:51:44;;;;;;;;;;;;;;;17.27;37.84;99920.00;5073178;28;20007;-64
2023/10/10 13:54:10;;;;;;;;;;;;;;;17.25;37.53;99927.59;5072799;28;20011;-63
2023/10/10 13:56:36;;;;;;;;;;;;;;;17.23;37.87;99918.88;5055039;28;19919;-65
2023/10/10 13:59:01;;;;;;;;;;;;;;;17.29;37.60;99915.19;5073395;28;20007;-64
2023/10/10 14:01:36;;;;;;;;;;;;;;;17.22;37.76;99907.22;5072975;28;19916;-64
2023/10/10 14:04:13;;;;;;;;;;;;;;;17.25;38.30;99900.44;5073281;28;19913;-64
2023/10/10 14:06:47;;;;;;;;;;;;;;;17.22;38.13;99890.13;5073116;28;19994;-64
2023/10/10 14:09:25;;;;;;;;;;;;;;;17.21;38.68;99888.47;5075997;28;19920;-64
2023/10/10 14:11:51;;;;;;;;;;;;;;;17.17;39.97;99880.00;5093718;28;19919;-64
2023/10/10 14:14:18;;;;;;;;;;;;;;;17.18;40.87;99891.69;5093286;28;19970;-64
2023/10/10 14:16:43;;;;;;;;;;;;;;;17.09;41.69;99877.72;5084961;28;19982;-64
2023/10/10 14:19:09;;;;;;;;;;;;;;;17.03;41.77;99876.84;5073158;28;19912;-64
2023/10/10 14:21:38;;;;;;;;;;;;;;;16.93;42.42;99878.59;5073142;28;19913;-64
2023/10/10 14:24:08;;;;;;;;;;;;;;;16.83;42.37;99861.09;5072916;28;20622;-64
2023/10/10 14:26:36;;;;;;;;;;;;;;;16.77;43.83;99867.50;5073316;28;19919;-64
2023/10/10 14:29:05;;;;;;;;;;;;;;;16.74;43.16;99851.72;5072832;28;19920;-64
2023/10/10 14:31:31;;;;;;;;;;;;;;;16.71;43.85;99848.69;5072894;28;19912;-64
2023/10/10 14:34:01;;;;;;;;;;;;;;;16.77;43.08;99831.41;5072805;28;20499;-64
2023/10/10 14:36:29;;;;;;;;;;;;;;;16.83;42.86;99822.31;5073281;28;20313;-64
2023/10/10 14:38:57;;;;;;;;;;;;;;;16.71;43.35;99816.97;5073003;28;19912;-64
2023/10/10 14:41:30;;;;;;;;;;;;;;;16.69;43.85;99810.97;5073203;28;19920;-64
2023/10/10 14:43:59;;;;;;;;;;;;;;;16.70;42.99;99807.22;5072851;28;19912;-64
2023/10/10 14:46:27;;;;;;;;;;;;;;;16.76;43.04;99806.19;5073232;28;19912;-64
2023/10/10 14:49:05;;;;;;;;;;;;;;;16.77;43.38;99812.44;5073123;28;19953;-64
2023/10/10 14:51:33;;;;;;;;;;;;;;;16.77;43.39;99794.28;5073387;28;20007;-64
2023/10/10 14:54:11;;;;;;;;;;;;;;;16.71;44.23;99794.47;5056253;28;20003;-64
2023/10/10 14:56:38;;;;;;;;;;;;;;;16.64;43.95;99792.75;5054589;28;19913;-64
2023/10/10 14:59:04;;;;;;;;;;;;;;;16.72;44.10;99779.84;5076909;28;20261;-64
2023/10/10 15:01:34;;;;;;;;;;;;;;;16.73;43.93;99774.16;5075972;28;19927;-64
2023/10/10 15:04:02;;;;;;;;;;;;;;;16.64;44.32;99771.06;5076145;28;19920;-64
2023/10/10 15:06:28;;;;;;;;;;;;;;;16.64;43.86;99762.09;5087203;28;20003;-64
2023/10/10 15:08:55;;;;;;;;;;;;;;;16.67;44.26;99756.19;5096542;28;20041;-64
2023/10/10 15:11:20;;;;;;;;;;;;;;;16.76;43.89;99751.97;5097080;28;20065;-64
2023/10/10 15:13:47;;;;;;;;;;;;;;;16.79;44.41;99748.75;5097424;28;19916;-64
2023/10/10 15:16:13;;;;;;;;;;;;;;;16.73;45.00;99729.94;5096924;28;19912;-64
2023/10/10 15:18:41;;;;;;;;;;;;;;;16.73;45.09;99719.09;5073655;28;19912;-64
2023/10/10 15:21:06;;;;;;;;;;;;;;;16.78;44.80;99713.75;5076112;28;20321;-65
2023/10/10 15:23:32;;;;;;;;;;;;;;;16.76;45.04;99705.06;5076161;28;20315;-64
2023/10/10 15:26:05;;;;;;;;;;;;;;;16.75;45.56;99698.81;5075975;28;19917;-65